Flight Briefing for CPX952

Departure Arrival
Joint Base McGuire Dix Lakehurst (KWRI)
Click to view FAA NOTAMS
Washington Dulles International Airport (KIAD)
Click to view FAA NOTAMS
Departure Time Arrival Time
N/A N/A
Aircraft Distance
B757-200SF 151nm
Departure METAR Arrival METAR
KWRI 192256Z AUTO 30007KT 10SM CLR 00/M12 A3056 RMK AO2 SLP350 T10021125 KIAD 192252Z 35004KT 10SM OVC200 03/M13 A3059 RMK AO2 SLP363 T00281133
Suggested Route
MXE


View recent IFR Routes data
Notes
EMPTY | NON-REVENUE REPOSITIONING LEG

Charts and Procedures

Charts for KWRI
No chart available
Charts for KIAD
No chart available

Ventusky Weather




{"cat":null,"equip":null,"transponder":null,"pbn":"PBN\/","maxpax":null,"oew":"0.0","mzfw":"0.0","mtow":"0.0","mlw":"0.0","maxfuel":"0.0"} DEVELOPMENTAL TEST USE ONLY